Current Weather

Al Ahsa

Al Ahsa, Saudi Arabia (OEAH)

Report from: Tuesday, August 16, 2022 10:00 AM +03
Current time: Tuesday, August 16, 2022 10:49 AM +03

Nearby weather
Weather history
Weather forecast

Temperature43.0°C (109.4°F)
Heat index40.1°C (104.3°F)
Dew point5.0°C (41.0°F)
Winds 12 kts (6.2 m/s, 13.8 mph) West (280°)
Clouds Sky clear
Altimeter29.50 in.Hg (999 mB)
Relative humidity10 %
Density altitude3,733 ft. (1,138 m)
Remarks Ceiling and visibility OK
No significant changes expected in the next two hours
Flight conditions Visual Meteorological Conditions
Raw dataOEAH 160700Z 28012KT CAVOK 43/05 Q0999 NOSIG
An error has occurred. This application may no longer respond until reloaded. Reload 🗙